sensor_id;sensor_type;location;lat;lon;timestamp;temperature;humidity
24091;DHT22;12272;52.426;17.100;2023-03-02T00:01:03;-1.50;99.90
24091;DHT22;12272;52.426;17.100;2023-03-02T00:06:09;-1.30;99.90
24091;DHT22;12272;52.426;17.100;2023-03-02T00:11:12;-1.40;99.90
24091;DHT22;12272;52.426;17.100;2023-03-02T00:16:16;-1.40;99.90
24091;DHT22;12272;52.426;17.100;2023-03-02T00:21:19;-1.40;99.90
24091;DHT22;12272;52.426;17.100;2023-03-02T00:26:22;-1.40;99.90
24091;DHT22;12272;52.426;17.100;2023-03-02T00:31:25;-1.70;99.90
24091;DHT22;12272;52.426;17.100;2023-03-02T00:36:29;-1.70;99.90
24091;DHT22;12272;52.426;17.100;2023-03-02T00:41:31;-1.70;99.90
24091;DHT22;12272;52.426;17.100;2023-03-02T00:46:34;-1.60;99.90
24091;DHT22;12272;52.426;17.100;2023-03-02T00:51:37;-1.50;99.90
24091;DHT22;12272;52.426;17.100;2023-03-02T00:56:40;-1.50;99.90
24091;DHT22;12272;52.426;17.100;2023-03-02T01:01:43;-1.60;99.90
24091;DHT22;12272;52.426;17.100;2023-03-02T01:06:45;-1.80;99.90
24091;DHT22;12272;52.426;17.100;2023-03-02T01:11:49;-1.90;99.90
24091;DHT22;12272;52.426;17.100;2023-03-02T01:16:52;-1.70;99.90
24091;DHT22;12272;52.426;17.100;2023-03-02T01:21:55;-1.70;99.90
24091;DHT22;12272;52.426;17.100;2023-03-02T01:26:57;-1.90;99.90
24091;DHT22;12272;52.426;17.100;2023-03-02T01:32:01;-1.70;99.90
24091;DHT22;12272;52.426;17.100;2023-03-02T01:37:04;-1.70;99.90
24091;DHT22;12272;52.426;17.100;2023-03-02T01:42:06;-1.80;99.90
24091;DHT22;12272;52.426;17.100;2023-03-02T01:47:13;-2.00;99.90
24091;DHT22;12272;52.426;17.100;2023-03-02T01:52:25;-2.20;99.90
24091;DHT22;12272;52.426;17.100;2023-03-02T01:57:32;-2.10;99.90
24091;DHT22;12272;52.426;17.100;2023-03-02T02:02:35;-1.60;99.90
24091;DHT22;12272;52.426;17.100;2023-03-02T02:07:38;-1.70;99.90
24091;DHT22;12272;52.426;17.100;2023-03-02T02:12:42;-1.90;99.90
24091;DHT22;12272;52.426;17.100;2023-03-02T02:17:45;-1.80;99.90
24091;DHT22;12272;52.426;17.100;2023-03-02T02:28:26;-1.80;99.90
24091;DHT22;12272;52.426;17.100;2023-03-02T02:33:31;-1.70;99.90
24091;DHT22;12272;52.426;17.100;2023-03-02T02:38:35;-1.80;99.90
24091;DHT22;12272;52.426;17.100;2023-03-02T02:43:38;-2.00;99.90
24091;DHT22;12272;52.426;17.100;2023-03-02T02:48:41;-1.90;99.90
24091;DHT22;12272;52.426;17.100;2023-03-02T02:58:52;-2.00;99.90
24091;DHT22;12272;52.426;17.100;2023-03-02T03:04:01;-1.90;99.90
24091;DHT22;12272;52.426;17.100;2023-03-02T03:09:06;-1.50;99.90
24091;DHT22;12272;52.426;17.100;2023-03-02T03:14:17;-0.90;99.90
24091;DHT22;12272;52.426;17.100;2023-03-02T03:19:31;-0.60;99.90
24091;DHT22;12272;52.426;17.100;2023-03-02T03:24:34;0.00;99.90
24091;DHT22;12272;52.426;17.100;2023-03-02T03:29:43;1.00;99.90
24091;DHT22;12272;52.426;17.100;2023-03-02T03:34:48;1.70;99.90
24091;DHT22;12272;52.426;17.100;2023-03-02T03:39:59;1.80;99.90
24091;DHT22;12272;52.426;17.100;2023-03-02T03:45:04;1.40;99.90
24091;DHT22;12272;52.426;17.100;2023-03-02T03:50:08;2.10;99.90
24091;DHT22;12272;52.426;17.100;2023-03-02T03:55:12;2.80;99.90
24091;DHT22;12272;52.426;17.100;2023-03-02T04:00:16;2.80;99.90
24091;DHT22;12272;52.426;17.100;2023-03-02T04:05:32;2.70;99.90
24091;DHT22;12272;52.426;17.100;2023-03-02T04:10:37;2.30;99.90
24091;DHT22;12272;52.426;17.100;2023-03-02T04:15:40;1.80;99.90
24091;DHT22;12272;52.426;17.100;2023-03-02T04:20:43;1.60;99.90
24091;DHT22;12272;52.426;17.100;2023-03-02T04:25:47;2.20;99.90
24091;DHT22;12272;52.426;17.100;2023-03-02T04:30:53;2.10;99.90
24091;DHT22;12272;52.426;17.100;2023-03-02T04:35:57;3.00;99.90
24091;DHT22;12272;52.426;17.100;2023-03-02T04:41:00;3.40;99.90
24091;DHT22;12272;52.426;17.100;2023-03-02T04:46:03;2.40;99.90
24091;DHT22;12272;52.426;17.100;2023-03-02T04:51:05;2.60;99.90
24091;DHT22;12272;52.426;17.100;2023-03-02T04:56:08;2.20;99.90
24091;DHT22;12272;52.426;17.100;2023-03-02T05:01:12;1.90;99.90
24091;DHT22;12272;52.426;17.100;2023-03-02T05:06:15;2.20;99.90
24091;DHT22;12272;52.426;17.100;2023-03-02T05:11:19;2.90;99.90
24091;DHT22;12272;52.426;17.100;2023-03-02T05:16:25;2.80;99.90
24091;DHT22;12272;52.426;17.100;2023-03-02T05:21:30;2.60;99.90
24091;DHT22;12272;52.426;17.100;2023-03-02T05:26:33;1.90;99.90
24091;DHT22;12272;52.426;17.100;2023-03-02T05:31:39;2.00;99.90
24091;DHT22;12272;52.426;17.100;2023-03-02T05:36:43;1.50;99.90
24091;DHT22;12272;52.426;17.100;2023-03-02T05:41:46;1.30;99.90
24091;DHT22;12272;52.426;17.100;2023-03-02T05:46:49;1.20;99.90
24091;DHT22;12272;52.426;17.100;2023-03-02T05:51:52;1.30;99.90
24091;DHT22;12272;52.426;17.100;2023-03-02T05:56:54;2.00;99.90
24091;DHT22;12272;52.426;17.100;2023-03-02T06:01:57;2.00;99.90
24091;DHT22;12272;52.426;17.100;2023-03-02T06:07:00;2.00;99.90
24091;DHT22;12272;52.426;17.100;2023-03-02T06:12:03;2.20;99.90
24091;DHT22;12272;52.426;17.100;2023-03-02T06:17:06;2.00;99.90
24091;DHT22;12272;52.426;17.100;2023-03-02T06:22:09;2.30;99.90
24091;DHT22;12272;52.426;17.100;2023-03-02T06:27:12;2.10;99.90
24091;DHT22;12272;52.426;17.100;2023-03-02T06:32:14;2.00;99.90
24091;DHT22;12272;52.426;17.100;2023-03-02T06:37:17;1.90;99.90
24091;DHT22;12272;52.426;17.100;2023-03-02T06:42:20;1.90;99.90
24091;DHT22;12272;52.426;17.100;2023-03-02T06:47:23;1.10;99.90
24091;DHT22;12272;52.426;17.100;2023-03-02T06:52:26;2.40;99.90
24091;DHT22;12272;52.426;17.100;2023-03-02T06:57:28;5.00;99.90
24091;DHT22;12272;52.426;17.100;2023-03-02T07:02:35;4.40;99.90
24091;DHT22;12272;52.426;17.100;2023-03-02T07:07:40;3.50;99.90
24091;DHT22;12272;52.426;17.100;2023-03-02T07:12:42;3.20;99.90
24091;DHT22;12272;52.426;17.100;2023-03-02T07:17:45;3.00;99.90
24091;DHT22;12272;52.426;17.100;2023-03-02T07:22:48;2.60;99.90
24091;DHT22;12272;52.426;17.100;2023-03-02T07:27:51;2.70;99.90
24091;DHT22;12272;52.426;17.100;2023-03-02T07:32:53;2.60;99.90
24091;DHT22;12272;52.426;17.100;2023-03-02T07:37:56;2.60;99.90
24091;DHT22;12272;52.426;17.100;2023-03-02T07:42:58;2.60;99.90
24091;DHT22;12272;52.426;17.100;2023-03-02T07:48:01;2.70;99.90
24091;DHT22;12272;52.426;17.100;2023-03-02T07:53:04;2.70;99.90
24091;DHT22;12272;52.426;17.100;2023-03-02T07:58:06;3.00;99.90
24091;DHT22;12272;52.426;17.100;2023-03-02T08:03:09;3.30;99.90
24091;DHT22;12272;52.426;17.100;2023-03-02T08:08:12;3.30;99.90
24091;DHT22;12272;52.426;17.100;2023-03-02T08:13:17;3.60;99.90
24091;DHT22;12272;52.426;17.100;2023-03-02T08:18:20;3.60;99.90
24091;DHT22;12272;52.426;17.100;2023-03-02T08:23:23;3.60;99.90
24091;DHT22;12272;52.426;17.100;2023-03-02T08:28:26;3.60;99.90
24091;DHT22;12272;52.426;17.100;2023-03-02T08:33:29;4.00;99.90
24091;DHT22;12272;52.426;17.100;2023-03-02T08:38:34;3.90;99.90
24091;DHT22;12272;52.426;17.100;2023-03-02T08:43:37;4.40;99.90
24091;DHT22;12272;52.426;17.100;2023-03-02T08:48:39;4.40;99.90
24091;DHT22;12272;52.426;17.100;2023-03-02T08:53:45;5.30;99.90
24091;DHT22;12272;52.426;17.100;2023-03-02T08:58:48;5.80;99.90
24091;DHT22;12272;52.426;17.100;2023-03-02T09:03:51;5.60;99.90
24091;DHT22;12272;52.426;17.100;2023-03-02T09:08:54;5.80;99.90
24091;DHT22;12272;52.426;17.100;2023-03-02T09:13:57;5.50;99.90
24091;DHT22;12272;52.426;17.100;2023-03-02T09:19:00;5.20;99.90
24091;DHT22;12272;52.426;17.100;2023-03-02T09:24:02;5.20;99.90
24091;DHT22;12272;52.426;17.100;2023-03-02T09:29:05;4.80;99.90
24091;DHT22;12272;52.426;17.100;2023-03-02T09:34:08;5.70;99.90
24091;DHT22;12272;52.426;17.100;2023-03-02T09:39:11;5.50;99.90
24091;DHT22;12272;52.426;17.100;2023-03-02T09:44:32;5.00;99.90
24091;DHT22;12272;52.426;17.100;2023-03-02T09:50:02;3.70;99.90
24091;DHT22;12272;52.426;17.100;2023-03-02T09:55:17;4.00;99.90
24091;DHT22;12272;52.426;17.100;2023-03-02T10:00:36;4.40;99.90
24091;DHT22;12272;52.426;17.100;2023-03-02T10:06:01;5.20;99.90
24091;DHT22;12272;52.426;17.100;2023-03-02T10:11:16;5.30;99.90
24091;DHT22;12272;52.426;17.100;2023-03-02T10:21:44;4.80;99.90
24091;DHT22;12272;52.426;17.100;2023-03-02T10:26:52;4.80;99.90
24091;DHT22;12272;52.426;17.100;2023-03-02T10:32:06;5.40;99.90
24091;DHT22;12272;52.426;17.100;2023-03-02T10:37:27;5.50;99.90
24091;DHT22;12272;52.426;17.100;2023-03-02T10:42:34;5.90;99.90
24091;DHT22;12272;52.426;17.100;2023-03-02T10:47:38;5.50;99.90
24091;DHT22;12272;52.426;17.100;2023-03-02T10:52:48;5.60;99.90
24091;DHT22;12272;52.426;17.100;2023-03-02T10:58:14;5.30;99.90
24091;DHT22;12272;52.426;17.100;2023-03-02T11:03:21;5.40;99.90
24091;DHT22;12272;52.426;17.100;2023-03-02T11:08:26;5.40;99.90
24091;DHT22;12272;52.426;17.100;2023-03-02T11:13:35;5.10;99.90
24091;DHT22;12272;52.426;17.100;2023-03-02T11:24:15;5.30;99.90
24091;DHT22;12272;52.426;17.100;2023-03-02T11:34:46;4.50;99.90
24091;DHT22;12272;52.426;17.100;2023-03-02T11:40:03;4.40;99.90
24091;DHT22;12272;52.426;17.100;2023-03-02T11:50:15;5.00;99.90
24091;DHT22;12272;52.426;17.100;2023-03-02T11:55:21;4.90;99.90
24091;DHT22;12272;52.426;17.100;2023-03-02T12:00:31;4.40;99.90
24091;DHT22;12272;52.426;17.100;2023-03-02T12:05:37;4.10;99.90
24091;DHT22;12272;52.426;17.100;2023-03-02T12:10:58;4.60;99.90
24091;DHT22;12272;52.426;17.100;2023-03-02T12:21:24;5.00;99.90
24091;DHT22;12272;52.426;17.100;2023-03-02T12:26:33;5.00;99.90
24091;DHT22;12272;52.426;17.100;2023-03-02T12:31:44;6.80;99.90
24091;DHT22;12272;52.426;17.100;2023-03-02T12:36:48;6.90;99.90
24091;DHT22;12272;52.426;17.100;2023-03-02T12:47:17;6.30;99.50
24091;DHT22;12272;52.426;17.100;2023-03-02T12:52:27;6.00;99.90
24091;DHT22;12272;52.426;17.100;2023-03-02T12:57:30;5.80;99.90
24091;DHT22;12272;52.426;17.100;2023-03-02T13:02:34;5.40;99.90
24091;DHT22;12272;52.426;17.100;2023-03-02T13:07:43;5.40;99.90
24091;DHT22;12272;52.426;17.100;2023-03-02T13:12:47;5.50;99.90
24091;DHT22;12272;52.426;17.100;2023-03-02T13:17:58;5.30;99.90
24091;DHT22;12272;52.426;17.100;2023-03-02T13:23:02;5.20;99.90
24091;DHT22;12272;52.426;17.100;2023-03-02T13:28:05;4.70;99.90
24091;DHT22;12272;52.426;17.100;2023-03-02T13:33:21;5.20;99.90
24091;DHT22;12272;52.426;17.100;2023-03-02T13:38:28;5.20;99.90
24091;DHT22;12272;52.426;17.100;2023-03-02T13:43:37;4.60;99.90
24091;DHT22;12272;52.426;17.100;2023-03-02T13:48:40;4.90;99.90
24091;DHT22;12272;52.426;17.100;2023-03-02T13:54:11;4.80;99.90
24091;DHT22;12272;52.426;17.100;2023-03-02T13:59:19;5.50;99.90
24091;DHT22;12272;52.426;17.100;2023-03-02T14:04:22;5.80;99.90
24091;DHT22;12272;52.426;17.100;2023-03-02T14:09:25;5.20;99.90
24091;DHT22;12272;52.426;17.100;2023-03-02T14:14:29;5.00;99.90
24091;DHT22;12272;52.426;17.100;2023-03-02T14:19:35;5.10;99.90
24091;DHT22;12272;52.426;17.100;2023-03-02T14:24:37;5.40;99.90
24091;DHT22;12272;52.426;17.100;2023-03-02T14:29:42;5.30;99.90
24091;DHT22;12272;52.426;17.100;2023-03-02T14:34:45;4.90;99.90
24091;DHT22;12272;52.426;17.100;2023-03-02T14:39:49;4.50;99.90
24091;DHT22;12272;52.426;17.100;2023-03-02T14:44:55;4.60;99.90
24091;DHT22;12272;52.426;17.100;2023-03-02T14:49:57;4.70;99.90
24091;DHT22;12272;52.426;17.100;2023-03-02T14:55:03;4.60;99.90
24091;DHT22;12272;52.426;17.100;2023-03-02T15:00:07;4.60;99.90
24091;DHT22;12272;52.426;17.100;2023-03-02T15:05:13;4.70;99.90
24091;DHT22;12272;52.426;17.100;2023-03-02T15:10:19;4.40;99.90
24091;DHT22;12272;52.426;17.100;2023-03-02T15:15:22;4.20;99.90
24091;DHT22;12272;52.426;17.100;2023-03-02T15:20:26;4.10;99.90
24091;DHT22;12272;52.426;17.100;2023-03-02T15:25:30;3.90;99.90
24091;DHT22;12272;52.426;17.100;2023-03-02T15:30:32;3.90;99.90
24091;DHT22;12272;52.426;17.100;2023-03-02T15:35:37;4.10;99.90
24091;DHT22;12272;52.426;17.100;2023-03-02T15:40:40;4.80;99.90
24091;DHT22;12272;52.426;17.100;2023-03-02T15:45:44;6.00;99.90
24091;DHT22;12272;52.426;17.100;2023-03-02T15:51:01;7.60;99.90
24091;DHT22;12272;52.426;17.100;2023-03-02T16:01:10;4.90;99.90
24091;DHT22;12272;52.426;17.100;2023-03-02T16:06:13;4.00;99.90
24091;DHT22;12272;52.426;17.100;2023-03-02T16:11:17;4.10;99.90
24091;DHT22;12272;52.426;17.100;2023-03-02T16:16:24;3.90;99.90
24091;DHT22;12272;52.426;17.100;2023-03-02T16:21:28;3.70;99.90
24091;DHT22;12272;52.426;17.100;2023-03-02T16:26:33;3.60;99.90
24091;DHT22;12272;52.426;17.100;2023-03-02T16:31:36;3.30;99.90
24091;DHT22;12272;52.426;17.100;2023-03-02T16:36:40;3.30;99.90
24091;DHT22;12272;52.426;17.100;2023-03-02T16:41:43;3.10;99.90
24091;DHT22;12272;52.426;17.100;2023-03-02T16:46:47;3.40;99.90
24091;DHT22;12272;52.426;17.100;2023-03-02T16:51:57;3.10;99.90
24091;DHT22;12272;52.426;17.100;2023-03-02T16:57:00;3.10;99.90
24091;DHT22;12272;52.426;17.100;2023-03-02T17:02:03;2.90;99.90
24091;DHT22;12272;52.426;17.100;2023-03-02T17:07:05;2.80;99.90
24091;DHT22;12272;52.426;17.100;2023-03-02T17:12:08;2.80;99.90
24091;DHT22;12272;52.426;17.100;2023-03-02T17:17:11;3.50;99.90
24091;DHT22;12272;52.426;17.100;2023-03-02T17:22:13;3.60;99.90
24091;DHT22;12272;52.426;17.100;2023-03-02T17:27:16;3.40;99.90
24091;DHT22;12272;52.426;17.100;2023-03-02T17:32:26;4.30;99.90
24091;DHT22;12272;52.426;17.100;2023-03-02T17:37:29;4.20;99.90
24091;DHT22;12272;52.426;17.100;2023-03-02T17:42:32;4.70;99.90
24091;DHT22;12272;52.426;17.100;2023-03-02T17:47:34;4.30;99.90
24091;DHT22;12272;52.426;17.100;2023-03-02T17:52:37;4.40;99.90
24091;DHT22;12272;52.426;17.100;2023-03-02T17:57:40;4.10;99.90
24091;DHT22;12272;52.426;17.100;2023-03-02T18:02:43;3.90;99.90
24091;DHT22;12272;52.426;17.100;2023-03-02T18:07:45;4.40;99.90
24091;DHT22;12272;52.426;17.100;2023-03-02T18:12:48;4.30;99.90
24091;DHT22;12272;52.426;17.100;2023-03-02T18:17:54;3.50;99.90
24091;DHT22;12272;52.426;17.100;2023-03-02T18:22:57;2.90;99.90
24091;DHT22;12272;52.426;17.100;2023-03-02T18:27:59;2.30;99.90
24091;DHT22;12272;52.426;17.100;2023-03-02T18:33:02;2.10;99.90
24091;DHT22;12272;52.426;17.100;2023-03-02T18:38:05;1.90;99.90
24091;DHT22;12272;52.426;17.100;2023-03-02T18:43:07;1.60;99.90
24091;DHT22;12272;52.426;17.100;2023-03-02T18:48:10;1.60;99.90
24091;DHT22;12272;52.426;17.100;2023-03-02T18:58:18;1.10;99.90
24091;DHT22;12272;52.426;17.100;2023-03-02T19:03:21;1.20;99.90
24091;DHT22;12272;52.426;17.100;2023-03-02T19:08:26;1.20;99.90
24091;DHT22;12272;52.426;17.100;2023-03-02T19:13:30;1.20;99.90
24091;DHT22;12272;52.426;17.100;2023-03-02T19:18:32;1.10;99.90
24091;DHT22;12272;52.426;17.100;2023-03-02T19:23:35;1.10;99.90
24091;DHT22;12272;52.426;17.100;2023-03-02T19:28:38;1.10;99.90
24091;DHT22;12272;52.426;17.100;2023-03-02T19:33:41;1.00;99.90
24091;DHT22;12272;52.426;17.100;2023-03-02T19:38:44;1.00;99.90
24091;DHT22;12272;52.426;17.100;2023-03-02T19:43:47;1.10;99.90
24091;DHT22;12272;52.426;17.100;2023-03-02T19:48:50;1.50;99.90
24091;DHT22;12272;52.426;17.100;2023-03-02T19:53:52;1.90;99.90
24091;DHT22;12272;52.426;17.100;2023-03-02T19:58:56;2.40;99.90
24091;DHT22;12272;52.426;17.100;2023-03-02T20:03:58;2.30;99.90
24091;DHT22;12272;52.426;17.100;2023-03-02T20:09:05;2.00;99.90
24091;DHT22;12272;52.426;17.100;2023-03-02T20:14:07;1.80;99.90
24091;DHT22;12272;52.426;17.100;2023-03-02T20:19:10;2.00;99.90
24091;DHT22;12272;52.426;17.100;2023-03-02T20:24:15;1.90;99.90
24091;DHT22;12272;52.426;17.100;2023-03-02T20:29:18;2.20;99.90
24091;DHT22;12272;52.426;17.100;2023-03-02T20:34:21;1.90;99.90
24091;DHT22;12272;52.426;17.100;2023-03-02T20:39:28;2.00;99.90
24091;DHT22;12272;52.426;17.100;2023-03-02T20:44:31;2.10;99.90
24091;DHT22;12272;52.426;17.100;2023-03-02T20:49:35;2.60;99.90
24091;DHT22;12272;52.426;17.100;2023-03-02T20:54:40;3.30;99.90
24091;DHT22;12272;52.426;17.100;2023-03-02T20:59:43;4.40;99.90
24091;DHT22;12272;52.426;17.100;2023-03-02T21:04:47;4.40;99.90
24091;DHT22;12272;52.426;17.100;2023-03-02T21:09:50;3.80;99.90
24091;DHT22;12272;52.426;17.100;2023-03-02T21:14:52;4.60;99.90
24091;DHT22;12272;52.426;17.100;2023-03-02T21:19:55;4.30;99.90
24091;DHT22;12272;52.426;17.100;2023-03-02T21:24:58;4.10;99.90
24091;DHT22;12272;52.426;17.100;2023-03-02T21:30:03;3.00;99.90
24091;DHT22;12272;52.426;17.100;2023-03-02T21:35:07;2.60;99.90
24091;DHT22;12272;52.426;17.100;2023-03-02T21:40:15;2.10;99.90
24091;DHT22;12272;52.426;17.100;2023-03-02T21:45:18;2.00;99.90
24091;DHT22;12272;52.426;17.100;2023-03-02T21:50:23;2.00;99.90
24091;DHT22;12272;52.426;17.100;2023-03-02T21:55:29;3.00;99.90
24091;DHT22;12272;52.426;17.100;2023-03-02T22:00:34;3.00;99.90
24091;DHT22;12272;52.426;17.100;2023-03-02T22:05:38;2.80;99.90
24091;DHT22;12272;52.426;17.100;2023-03-02T22:10:43;2.40;99.90
24091;DHT22;12272;52.426;17.100;2023-03-02T22:15:47;2.80;99.90
24091;DHT22;12272;52.426;17.100;2023-03-02T22:20:50;2.70;99.90
24091;DHT22;12272;52.426;17.100;2023-03-02T22:25:55;2.70;99.90
24091;DHT22;12272;52.426;17.100;2023-03-02T22:31:13;2.50;99.90
24091;DHT22;12272;52.426;17.100;2023-03-02T22:36:21;2.20;99.90
24091;DHT22;12272;52.426;17.100;2023-03-02T22:41:23;1.70;99.90
24091;DHT22;12272;52.426;17.100;2023-03-02T22:46:26;3.50;99.90
24091;DHT22;12272;52.426;17.100;2023-03-02T22:51:29;4.50;99.90
24091;DHT22;12272;52.426;17.100;2023-03-02T23:01:41;6.00;99.90
24091;DHT22;12272;52.426;17.100;2023-03-02T23:06:54;6.30;99.90
24091;DHT22;12272;52.426;17.100;2023-03-02T23:12:04;5.60;99.90
24091;DHT22;12272;52.426;17.100;2023-03-02T23:17:16;5.90;99.90
24091;DHT22;12272;52.426;17.100;2023-03-02T23:22:19;5.20;99.90
24091;DHT22;12272;52.426;17.100;2023-03-02T23:27:22;6.00;99.90
24091;DHT22;12272;52.426;17.100;2023-03-02T23:32:25;6.80;99.90
24091;DHT22;12272;52.426;17.100;2023-03-02T23:37:28;6.80;99.90
24091;DHT22;12272;52.426;17.100;2023-03-02T23:42:31;5.40;99.90
24091;DHT22;12272;52.426;17.100;2023-03-02T23:47:33;6.50;99.90
24091;DHT22;12272;52.426;17.100;2023-03-02T23:52:37;6.80;99.90
24091;DHT22;12272;52.426;17.100;2023-03-02T23:57:40;6.30;99.90
